Zeran (malta) — 9HHJ5 — position and weather

sailwx.info

Track history (hours):
 
Tides and Currents Weather Stations Pressure Air Temp Water Temp Dewpoint Dewpoint Depression Visibility Wind Speed Wind Dir Waves Ship Positions

Zeran (malta)

Last reported at 2014-Sep-19 09:09 UTC. Time now 2014-Sep-19 09:50 UTC.
Position N 32°57' E 013°13'.

Length 148 m; beam 24 m.

Type: Cargo ship. MMSI: 249846000.

Date/timePositionNaut miles runAvg speedWind from/ knotsBaromVisibWave heightAir tempDewpointWater temp
2014-Sep-19 09:09N 32°57' E 013°13'65 5.5
2014-Sep-18 21:13N 32°56' E 014°31'5 7.2
2014-Sep-18 20:33N 32°55' E 014°37'7 6.4
2014-Sep-18 19:29N 32°52' E 014°44'6 6.4
2014-Sep-18 18:29N 32°46' E 014°48'7 7.9
2014-Sep-18 17:33N 32°44' E 014°56'8 8.1
2014-Sep-18 16:33N 32°41' E 015°05'13 6.5
2014-Sep-18 14:33N 32°31' E 015°16'9 6.7
2014-Sep-18 13:09N 32°22' E 015°14'  
2014-Sep-15 14:31N 32°23' E 015°17'0 0.0
2014-Sep-15 13:28N 32°23' E 015°17'0 0.0
2014-Sep-15 12:17N 32°23' E 015°17'134 7.0
2014-Sep-14 17:14N 34°25' E 014°10'74 7.7
2014-Sep-14 07:33N 35°32' E 013°32'8 7.6
2014-Sep-14 06:33N 35°39' E 013°27'8 7.8
2014-Sep-14 05:33N 35°46' E 013°23'8 7.9
2014-Sep-14 04:33N 35°53' E 013°19'12 7.8
2014-Sep-14 03:03N 36°03' E 013°13'4 7.9
2014-Sep-14 02:33N 36°07' E 013°11'47 7.9
2014-Sep-13 20:32N 36°48' E 012°42'8 8.1
2014-Sep-13 19:34N 36°55' E 012°37'  
2014-Sep-11 11:18N 43°25' E 009°24'6 7.6
2014-Sep-11 10:32N 43°31' E 009°21'7 7.3
2014-Sep-11 09:33N 43°37' E 009°18'8 8.1
2014-Sep-11 08:33N 43°45' E 009°14'1111.0
2014-Sep-11 07:33N 43°55' E 009°08'1110.9
2014-Sep-11 06:33N 44°05' E 009°02'1111.3
2014-Sep-11 05:33N 44°16' E 008°56'9 7.0
2014-Sep-11 04:16N 44°24' E 008°53'0 0.0
2014-Sep-11 03:25N 44°24' E 008°53'0 0.0
2014-Sep-11 02:31N 44°24' E 008°53'0 0.0
2014-Sep-11 01:25N 44°24' E 008°53'0 0.0
2014-Sep-11 00:28N 44°24' E 008°53'0 0.0
2014-Sep-10 23:28N 44°24' E 008°53'0 0.0
2014-Sep-10 22:31N 44°24' E 008°53'0 0.0
2014-Sep-10 19:22N 44°24' E 008°53'0 0.0
2014-Sep-10 18:16N 44°24' E 008°53'0 0.0
2014-Sep-10 16:16N 44°24' E 008°53'0 0.0
2014-Sep-10 15:19N 44°24' E 008°53'0 0.0
2014-Sep-10 14:28N 44°24' E 008°53'0 0.0
2014-Sep-10 11:25N 44°24' E 008°53'0 0.0
2014-Sep-10 07:16N 44°24' E 008°53'0 0.0
2014-Sep-10 06:28N 44°24' E 008°53'0 0.0
2014-Sep-10 04:04N 44°24' E 008°53'0 0.0
2014-Sep-10 03:16N 44°24' E 008°53'0 0.0
2014-Sep-10 02:31N 44°24' E 008°53'0 0.0
2014-Sep-10 01:28N 44°24' E 008°53'0 0.0
2014-Sep-10 00:25N 44°24' E 008°53'0 0.0
2014-Sep-09 23:31N 44°24' E 008°53'0 0.0
2014-Sep-09 18:22N 44°24' E 008°53'0 0.0
2014-Sep-09 15:31N 44°24' E 008°53'0 0.0
2014-Sep-09 14:16N 44°24' E 008°53'0 0.0
2014-Sep-09 11:31N 44°24' E 008°53'0 0.0
2014-Sep-09 10:28N 44°24' E 008°53'  
Track history (hours):
 
Tides and Currents Weather Stations Pressure Air Temp Water Temp Dewpoint Dewpoint Depression Visibility Wind Speed Wind Dir Waves Ship Positions

Zeran (malta)

Last reported at 2014-Sep-19 09:09 UTC. Time now 2014-Sep-19 09:50 UTC.
Position N 32°57' E 013°13'.

Length 148 m; beam 24 m.

Type: Cargo ship. MMSI: 249846000.

Date/timePositionNaut miles runAvg speedWind from/ knotsBaromVisibWave heightAir tempDewpointWater temp
2014-Sep-19 09:09N 32°57' E 013°13'65 5.5
2014-Sep-18 21:13N 32°56' E 014°31'5 7.2
2014-Sep-18 20:33N 32°55' E 014°37'7 6.4
2014-Sep-18 19:29N 32°52' E 014°44'6 6.4
2014-Sep-18 18:29N 32°46' E 014°48'7 7.9
2014-Sep-18 17:33N 32°44' E 014°56'8 8.1
2014-Sep-18 16:33N 32°41' E 015°05'13 6.5
2014-Sep-18 14:33N 32°31' E 015°16'9 6.7
2014-Sep-18 13:09N 32°22' E 015°14'  
2014-Sep-15 14:31N 32°23' E 015°17'0 0.0
2014-Sep-15 13:28N 32°23' E 015°17'0 0.0
2014-Sep-15 12:17N 32°23' E 015°17'134 7.0
2014-Sep-14 17:14N 34°25' E 014°10'74 7.7
2014-Sep-14 07:33N 35°32' E 013°32'8 7.6
2014-Sep-14 06:33N 35°39' E 013°27'8 7.8
2014-Sep-14 05:33N 35°46' E 013°23'8 7.9
2014-Sep-14 04:33N 35°53' E 013°19'12 7.8
2014-Sep-14 03:03N 36°03' E 013°13'4 7.9
2014-Sep-14 02:33N 36°07' E 013°11'47 7.9
2014-Sep-13 20:32N 36°48' E 012°42'8 8.1
2014-Sep-13 19:34N 36°55' E 012°37'  
2014-Sep-11 11:18N 43°25' E 009°24'6 7.6
2014-Sep-11 10:32N 43°31' E 009°21'7 7.3
2014-Sep-11 09:33N 43°37' E 009°18'8 8.1
2014-Sep-11 08:33N 43°45' E 009°14'1111.0
2014-Sep-11 07:33N 43°55' E 009°08'1110.9
2014-Sep-11 06:33N 44°05' E 009°02'1111.3
2014-Sep-11 05:33N 44°16' E 008°56'9 7.0
2014-Sep-11 04:16N 44°24' E 008°53'0 0.0
2014-Sep-11 03:25N 44°24' E 008°53'0 0.0
2014-Sep-11 02:31N 44°24' E 008°53'0 0.0
2014-Sep-11 01:25N 44°24' E 008°53'0 0.0
2014-Sep-11 00:28N 44°24' E 008°53'0 0.0
2014-Sep-10 23:28N 44°24' E 008°53'0 0.0
2014-Sep-10 22:31N 44°24' E 008°53'0 0.0
2014-Sep-10 19:22N 44°24' E 008°53'0 0.0
2014-Sep-10 18:16N 44°24' E 008°53'0 0.0
2014-Sep-10 16:16N 44°24' E 008°53'0 0.0
2014-Sep-10 15:19N 44°24' E 008°53'0 0.0
2014-Sep-10 14:28N 44°24' E 008°53'0 0.0
2014-Sep-10 11:25N 44°24' E 008°53'0 0.0
2014-Sep-10 07:16N 44°24' E 008°53'0 0.0
2014-Sep-10 06:28N 44°24' E 008°53'0 0.0
2014-Sep-10 04:04N 44°24' E 008°53'0 0.0
2014-Sep-10 03:16N 44°24' E 008°53'0 0.0
2014-Sep-10 02:31N 44°24' E 008°53'0 0.0
2014-Sep-10 01:28N 44°24' E 008°53'0 0.0
2014-Sep-10 00:25N 44°24' E 008°53'0 0.0
2014-Sep-09 23:31N 44°24' E 008°53'0 0.0
2014-Sep-09 18:22N 44°24' E 008°53'0 0.0
2014-Sep-09 15:31N 44°24' E 008°53'0 0.0
2014-Sep-09 14:16N 44°24' E 008°53'0 0.0
2014-Sep-09 11:31N 44°24' E 008°53'0 0.0
2014-Sep-09 10:28N 44°24' E 008°53'  

Dump ship's entire track history